Balsham, United Kingdom
Current Conditions -  °F | °C
As of 5:20 PM on Wednesday 26 Nov 2014 (Local Time) from EGSC Reporting Station
Haze Haze  
Wind Chill: 48°   Ceiling: 400
Heat Index: 48°   Visibility: 2.5mi
Dew Point: 46°   Wind: 1mph
Humidity: 93%   Direction: 170°S
Pressure: 29.8"   Gusts: NA
Location:  52.13°N, 0.32°E
Report Text: EGSC 261720Z 17001KT 4000 R23/P2000 R05/P2000 BR OVC004 09/08 Q1009
Loading
Personal Weather Stations






























Interactive Weather Map New forecast layout! Learn more

10-Day Weather Forecast

Advertisements
Track Severe Weather on mobile